Time;durP1;ratioP1;P1;durP2;ratioP2;P2;SDS_P1;SDS_P2;PMS_P1;PMS_P2;Temp;Humidity;BMP_temperature;BMP_pressure;BME280_temperature;BME280_humidity;BME280_pressure;Samples;Min_cycle;Max_cycle;Signal;HPM_P1;HPM_P2
2022/06/11 00:02:01;;;;;;;16.98;13.98;;;;;;;17.98;100.00;93909.00;5074776;28;20314;-63
2022/06/11 00:04:39;;;;;;;16.70;14.27;;;;;;;18.00;100.00;93911.34;5074529;28;20204;-66
2022/06/11 00:07:11;;;;;;;17.90;13.52;;;;;;;18.12;100.00;93915.75;5092625;28;20171;-61
2022/06/11 00:09:37;;;;;;;17.38;14.30;;;;;;;18.21;100.00;93917.19;5093388;28;20200;-65
2022/06/11 00:12:03;;;;;;;14.75;12.93;;;;;;;18.16;100.00;93916.19;5092570;28;20654;-63
2022/06/11 00:14:31;;;;;;;16.77;14.10;;;;;;;18.19;100.00;93916.59;5073793;28;20222;-63
2022/06/11 00:16:59;;;;;;;18.02;14.50;;;;;;;17.97;100.00;93920.28;5092773;28;20211;-63
2022/06/11 00:19:25;;;;;;;17.25;14.10;;;;;;;18.01;100.00;93921.47;5092828;28;20204;-64
2022/06/11 00:21:53;;;;;;;16.58;13.73;;;;;;;18.00;100.00;93917.31;5092521;28;20176;-63
2022/06/11 00:24:20;;;;;;;17.48;14.05;;;;;;;17.90;100.00;93921.22;5092607;28;20207;-61
2022/06/11 00:26:47;;;;;;;16.10;13.07;;;;;;;17.76;100.00;93922.94;5074300;28;20176;-62
2022/06/11 00:29:14;;;;;;;13.65;12.20;;;;;;;17.83;100.00;93916.06;5092541;28;20275;-64
2022/06/11 00:31:41;;;;;;;14.30;11.38;;;;;;;17.74;100.00;93917.19;5092321;28;20250;-65
2022/06/11 00:34:06;;;;;;;14.35;12.75;;;;;;;17.61;100.00;93923.06;5092555;28;20699;-63
2022/06/11 00:36:32;;;;;;;15.32;12.32;;;;;;;17.36;100.00;93921.91;5092346;28;20180;-64
2022/06/11 00:38:58;;;;;;;15.13;12.90;;;;;;;17.32;100.00;93914.78;5092587;28;20682;-61
2022/06/11 00:41:26;;;;;;;15.38;12.30;;;;;;;17.65;100.00;93915.78;5092270;28;20176;-66
2022/06/11 00:43:53;;;;;;;14.05;12.57;;;;;;;17.59;100.00;93916.56;5092428;28;20265;-63
2022/06/11 00:46:49;;;;;;;16.13;13.35;;;;;;;17.46;100.00;93919.00;5074223;28;20169;-68
2022/06/11 00:49:41;;;;;;;15.48;11.70;;;;;;;17.67;100.00;93920.72;5073725;28;20758;-65
2022/06/11 00:52:19;;;;;;;16.55;13.35;;;;;;;17.53;100.00;93910.38;5073450;28;20713;-61
2022/06/11 00:54:51;;;;;;;16.27;12.70;;;;;;;17.55;100.00;93912.78;5092030;28;20230;-63
2022/06/11 00:57:17;;;;;;;14.20;11.70;;;;;;;17.60;100.00;93911.22;5091835;28;20168;-63
2022/06/11 00:59:48;;;;;;;12.13;10.82;;;;;;;17.50;100.00;93909.97;5091828;28;20206;-62
2022/06/11 01:02:14;;;;;;;13.48;10.85;;;;;;;17.41;100.00;93911.09;5091417;28;20168;-63
2022/06/11 01:05:02;;;;;;;13.27;11.45;;;;;;;17.43;100.00;93912.47;5091790;28;20233;-63
2022/06/11 01:07:50;;;;;;;13.88;10.57;;;;;;;17.59;100.00;93908.84;5073131;28;20203;-63
2022/06/11 01:10:35;;;;;;;10.85;9.43;;;;;;;17.62;100.00;93911.00;5073711;28;20176;-63
2022/06/11 01:13:14;;;;;;;13.90;9.60;;;;;;;17.63;100.00;93910.03;5073664;28;20210;-64
2022/06/11 01:15:45;;;;;;;10.45;9.45;;;;;;;17.56;100.00;93909.19;5091759;28;20558;-63
2022/06/11 01:18:23;;;;;;;11.77;10.57;;;;;;;17.59;100.00;93908.84;5091630;28;20242;-64
2022/06/11 01:20:52;;;;;;;11.30;10.15;;;;;;;17.55;100.00;93910.97;5090886;28;20169;-62
2022/06/11 01:23:48;;;;;;;11.18;9.95;;;;;;;17.59;100.00;93907.03;5091034;28;20219;-66
2022/06/11 01:26:46;;;;;;;11.00;9.60;;;;;;;17.48;100.00;93907.56;5075743;28;20588;-65
2022/06/11 01:29:11;;;;;;;11.27;9.65;;;;;;;17.42;100.00;93907.50;5094794;28;20257;-62
2022/06/11 01:32:26;;;;;;;11.98;10.77;;;;;;;17.31;100.00;93910.63;5076277;28;20176;-62
2022/06/11 01:35:07;;;;;;;11.73;10.05;;;;;;;17.59;100.00;93914.75;5058817;28;20228;-64
2022/06/11 01:37:38;;;;;;;11.13;9.90;;;;;;;17.40;100.00;93914.63;5094392;28;20207;-63
2022/06/11 01:40:27;;;;;;;10.82;9.73;;;;;;;17.40;100.00;93914.63;5094459;28;20176;-65
2022/06/11 01:42:58;;;;;;;12.05;10.27;;;;;;;17.54;100.00;93914.53;5075889;28;20212;-63
2022/06/11 01:45:26;;;;;;;10.95;9.13;;;;;;;17.70;100.00;93918.56;5075982;28;20222;-61
2022/06/11 01:47:52;;;;;;;11.07;9.88;;;;;;;17.66;100.00;93914.00;5075771;28;20220;-62
2022/06/11 01:50:22;;;;;;;9.40;8.38;;;;;;;17.56;100.00;93914.34;5075835;28;20210;-63
2022/06/11 01:53:07;;;;;;;9.93;8.93;;;;;;;17.58;100.00;93917.53;5094194;28;20204;-62
2022/06/11 01:55:48;;;;;;;10.43;9.38;;;;;;;17.51;100.00;93914.13;5075827;28;20212;-66
2022/06/11 01:58:57;;;;;;;10.30;8.75;;;;;;;17.54;100.00;93911.97;5075701;28;20212;-61
2022/06/11 02:01:48;;;;;;;10.35;9.25;;;;;;;17.66;100.00;93917.34;5045114;28;20192;-62
2022/06/11 02:04:25;;;;;;;11.73;10.52;;;;;;;17.72;100.00;93921.75;5093739;28;20262;-62
2022/06/11 02:07:03;;;;;;;14.93;12.50;;;;;;;17.62;100.00;93916.16;5075786;28;20187;-62
2022/06/11 02:10:08;;;;;;;11.60;9.63;;;;;;;17.62;100.00;93916.16;5075851;28;20212;-60
2022/06/11 02:12:42;;;;;;;10.02;8.77;;;;;;;17.48;100.00;93911.91;5075037;28;20262;-65
2022/06/11 02:15:33;;;;;;;9.00;8.05;;;;;;;17.50;100.00;93913.34;5093536;28;20208;-65
2022/06/11 02:18:08;;;;;;;11.20;9.07;;;;;;;17.55;100.00;93913.53;4824368;28;7667264;-63
2022/06/11 02:20:47;;;;;;;9.18;8.27;;;;;;;17.58;100.00;93917.53;5076367;28;20664;-67
2022/06/11 02:23:24;;;;;;;9.63;8.65;;;;;;;17.59;100.00;93919.88;5076400;28;20294;-66
2022/06/11 02:25:53;;;;;;;9.45;8.35;;;;;;;17.79;100.00;93924.34;5094777;28;20172;-60
2022/06/11 02:28:26;;;;;;;9.82;8.60;;;;;;;17.86;100.00;93920.81;5094663;28;20200;-61
2022/06/11 02:30:56;;;;;;;10.15;9.15;;;;;;;17.85;100.00;93919.25;5094905;28;20176;-62
2022/06/11 02:33:22;;;;;;;8.88;8.00;;;;;;;17.78;100.00;93915.84;5094925;28;20241;-62
2022/06/11 02:36:01;;;;;;;8.90;8.02;;;;;;;17.74;100.00;93930.06;5094140;28;20212;-61
2022/06/11 02:38:28;;;;;;;9.88;8.88;;;;;;;17.74;100.00;93924.91;5094162;28;20552;-63
2022/06/11 02:41:06;;;;;;;9.13;7.80;;;;;;;17.64;100.00;93921.91;5076126;28;20181;-63
2022/06/11 02:43:32;;;;;;;9.00;8.13;;;;;;;17.50;100.00;93921.03;5075813;28;20560;-63
2022/06/11 02:45:58;;;;;;;10.23;9.18;;;;;;;17.44;100.00;93926.91;5094542;28;20180;-66
2022/06/11 02:48:23;;;;;;;10.10;8.88;;;;;;;17.51;100.00;93917.47;5076085;28;20623;-62
2022/06/11 02:50:50;;;;;;;10.02;8.45;;;;;;;17.61;100.00;93922.28;5094089;28;20274;-62
2022/06/11 02:53:16;;;;;;;8.80;7.90;;;;;;;17.51;100.00;93917.47;5075443;28;20196;-62
2022/06/11 02:55:44;;;;;;;8.98;8.13;;;;;;;17.65;100.00;93922.69;5093975;28;20269;-64
2022/06/11 02:58:11;;;;;;;9.68;8.00;;;;;;;17.57;100.00;93921.84;5075495;28;20201;-62
2022/06/11 03:00:41;;;;;;;9.57;8.60;;;;;;;17.50;100.00;93927.94;5094029;28;20211;-63
2022/06/11 03:03:07;;;;;;;8.18;7.38;;;;;;;17.59;100.00;93926.84;5093962;28;20681;-62
2022/06/11 03:05:35;;;;;;;9.18;8.20;;;;;;;17.48;100.00;93927.31;5075599;28;20306;-60
2022/06/11 03:08:02;;;;;;;9.45;8.55;;;;;;;17.37;100.00;93922.72;5094052;28;20678;-61
2022/06/11 03:10:28;;;;;;;8.20;7.20;;;;;;;17.41;100.00;93934.22;5093695;28;20223;-64
2022/06/11 03:12:55;;;;;;;8.68;7.78;;;;;;;17.44;100.00;93931.25;5093798;28;20196;-61
2022/06/11 03:15:22;;;;;;;8.90;8.00;;;;;;;17.51;100.00;93932.91;5075066;28;20628;-62
2022/06/11 03:17:49;;;;;;;9.30;8.30;;;;;;;17.59;100.00;93932.75;5093627;28;20203;-62
2022/06/11 03:20:17;;;;;;;8.95;8.05;;;;;;;17.62;100.00;93934.16;5093549;28;20169;-65
2022/06/11 03:22:43;;;;;;;9.68;8.20;;;;;;;17.63;100.00;93944.22;5093537;28;20196;-63
2022/06/11 03:25:10;;;;;;;8.25;7.45;;;;;;;17.63;100.00;93940.88;5075685;28;20187;-63
2022/06/11 03:27:38;;;;;;;8.70;7.90;;;;;;;17.63;100.00;93942.66;5093433;28;20176;-64
2022/06/11 03:30:06;;;;;;;9.88;8.85;;;;;;;17.72;100.00;93944.88;5093805;28;20208;-65
2022/06/11 03:32:32;;;;;;;8.63;7.82;;;;;;;17.70;100.00;93944.28;5093386;28;20172;-61
2022/06/11 03:34:57;;;;;;;8.43;7.63;;;;;;;17.89;100.00;93946.16;5100857;22;20227;-64
2022/06/11 03:37:23;;;;;;;8.50;7.70;;;;;;;17.80;100.00;93947.28;5093150;28;20176;-65
2022/06/11 03:39:49;;;;;;;8.50;7.65;;;;;;;17.75;100.00;93947.09;5093511;28;20177;-64
2022/06/11 03:42:15;;;;;;;9.27;8.38;;;;;;;17.80;100.00;93942.16;5093165;28;20172;-64
2022/06/11 03:44:41;;;;;;;8.43;7.53;;;;;;;17.88;100.00;93947.13;5093443;28;20204;-65
2022/06/11 03:47:06;;;;;;;9.88;7.50;;;;;;;17.92;100.00;93938.03;5092405;28;20172;-64
2022/06/11 03:49:32;;;;;;;9.50;7.70;;;;;;;17.71;100.00;93938.16;5092859;28;20235;-65
2022/06/11 03:51:57;;;;;;;9.48;8.00;;;;;;;17.83;100.00;93941.78;5092914;28;20241;-65
2022/06/11 03:54:22;;;;;;;8.45;7.60;;;;;;;17.79;100.00;93940.56;5092768;28;20235;-67
2022/06/11 03:56:50;;;;;;;9.18;7.43;;;;;;;17.87;100.00;93942.19;5058114;28;20198;-65
2022/06/11 03:59:16;;;;;;;9.23;7.10;;;;;;;17.86;100.00;93943.16;5074574;28;20316;-65
2022/06/11 04:01:43;;;;;;;9.05;8.10;;;;;;;17.81;100.00;93946.31;5074494;28;20740;-63
2022/06/11 04:04:12;;;;;;;9.05;7.97;;;;;;;17.73;100.00;93950.81;5074599;28;20571;-61
2022/06/11 04:06:51;;;;;;;8.05;7.25;;;;;;;17.52;100.00;93943.97;5074412;28;20326;-60
2022/06/11 04:09:27;;;;;;;8.55;7.65;;;;;;;17.64;100.00;93942.47;5074601;28;20200;-62
2022/06/11 04:11:53;;;;;;;11.05;8.48;;;;;;;17.69;100.00;93947.03;5092825;28;20156;-60
2022/06/11 04:14:37;;;;;;;9.43;8.43;;;;;;;17.70;100.00;93953.75;5073371;28;20238;-61
2022/06/11 04:17:10;;;;;;;9.45;8.45;;;;;;;17.79;100.00;93960.34;5092496;28;20172;-65
2022/06/11 04:19:40;;;;;;;9.70;8.70;;;;;;;17.83;100.00;93957.22;5092251;28;20208;-65
2022/06/11 04:22:07;;;;;;;9.30;8.35;;;;;;;17.82;100.00;93955.59;5092035;28;20215;-62
2022/06/11 04:24:33;;;;;;;9.77;8.73;;;;;;;17.89;100.00;93960.78;5092894;28;20211;-62
2022/06/11 04:27:00;;;;;;;11.15;8.55;;;;;;;17.82;100.00;93955.59;5092318;28;20173;-63
2022/06/11 04:29:30;;;;;;;11.68;9.43;;;;;;;17.89;100.00;93960.78;5099559;22;20224;-65
2022/06/11 04:31:58;;;;;;;12.00;8.18;;;;;;;17.92;100.00;93956.06;5092191;28;20237;-60
2022/06/11 04:34:24;;;;;;;9.45;8.55;;;;;;;17.96;100.00;93961.59;5092545;28;20261;-60
2022/06/11 04:36:51;;;;;;;11.38;9.85;;;;;;;17.88;100.00;93967.69;5073937;28;20173;-61
2022/06/11 04:39:20;;;;;;;9.55;8.15;;;;;;;17.92;100.00;93965.53;5092726;28;20201;-64
2022/06/11 04:41:46;;;;;;;10.13;8.95;;;;;;;17.98;100.00;93968.16;5091911;28;20172;-64
2022/06/11 04:44:13;;;;;;;9.80;8.75;;;;;;;18.03;100.00;93970.94;5092503;28;20284;-62
2022/06/11 04:46:39;;;;;;;9.02;8.13;;;;;;;18.09;100.00;93975.31;5092180;28;20229;-61
2022/06/11 04:49:05;;;;;;;9.32;8.40;;;;;;;18.11;100.00;93975.94;5092134;28;20314;-61
2022/06/11 04:51:30;;;;;;;9.13;7.32;;;;;;;18.05;100.00;93976.69;5091478;28;20264;-61
2022/06/11 04:53:56;;;;;;;7.00;6.32;;;;;;;18.06;100.00;93977.50;5073928;28;20250;-63
2022/06/11 04:56:24;;;;;;;6.68;6.03;;;;;;;17.95;100.00;93976.25;5091510;28;20261;-62
2022/06/11 04:58:51;;;;;;;7.65;6.85;;;;;;;17.99;100.00;93982.59;5073633;28;20208;-61
2022/06/11 05:01:17;;;;;;;7.25;6.55;;;;;;;18.08;100.00;93984.00;5090477;28;20630;-61
2022/06/11 05:03:43;;;;;;;6.47;5.88;;;;;;;18.20;100.00;93987.63;5073581;28;20218;-61
2022/06/11 05:06:08;;;;;;;6.68;5.50;;;;;;;18.04;100.00;93984.63;5073333;28;20553;-62
2022/06/11 05:08:34;;;;;;;7.90;5.90;;;;;;;18.01;100.00;93992.69;5091691;28;20210;-62
2022/06/11 05:11:00;;;;;;;6.20;5.03;;;;;;;18.00;100.00;93989.31;5091735;28;20183;-61
2022/06/11 05:13:25;;;;;;;6.40;5.55;;;;;;;18.03;100.00;93994.09;5073746;28;20262;-63
2022/06/11 05:15:54;;;;;;;5.05;4.15;;;;;;;17.91;100.00;93995.63;5092005;28;20206;-61
2022/06/11 05:18:21;;;;;;;5.32;4.90;;;;;;;17.92;100.00;93992.06;5073643;28;20204;-64
2022/06/11 05:20:47;;;;;;;7.10;5.22;;;;;;;17.96;100.00;93998.41;5091635;28;20191;-62
2022/06/11 05:23:13;;;;;;;5.85;4.65;;;;;;;18.04;100.00;93998.25;5091718;28;20204;-61
2022/06/11 05:25:41;;;;;;;6.57;5.40;;;;;;;18.07;100.00;94004.78;5091631;28;20678;-63
2022/06/11 05:28:11;;;;;;;6.25;5.53;;;;;;;18.08;100.00;94002.03;5082682;22;20224;-63
2022/06/11 05:30:36;;;;;;;6.32;5.63;;;;;;;17.95;100.00;94007.13;5091684;28;20196;-61
2022/06/11 05:33:03;;;;;;;6.80;6.05;;;;;;;17.85;100.00;94013.59;5091638;28;20196;-64
2022/06/11 05:35:30;;;;;;;9.15;6.22;;;;;;;17.80;100.00;94006.44;5073315;28;20215;-65
2022/06/11 05:38:00;;;;;;;6.05;5.55;;;;;;;17.91;100.00;94012.81;5073448;28;20281;-65
2022/06/11 05:40:29;;;;;;;6.75;6.05;;;;;;;18.26;100.00;94020.31;5098861;22;20212;-65
2022/06/11 05:42:55;;;;;;;6.70;6.07;;;;;;;18.35;100.00;94021.75;5091486;28;20188;-64
2022/06/11 05:45:29;;;;;;;7.22;6.10;;;;;;;18.18;100.00;94023.03;5091311;28;20622;-66
2022/06/11 05:47:56;;;;;;;5.72;5.10;;;;;;;18.12;100.00;94023.81;5091606;28;20210;-66
2022/06/11 05:50:26;;;;;;;8.68;6.00;;;;;;;18.81;100.00;94026.25;5091497;28;20229;-65
2022/06/11 05:52:53;;;;;;;8.77;4.80;;;;;;;18.64;100.00;94036.13;5073001;28;20697;-64
2022/06/11 05:55:22;;;;;;;5.32;4.82;;;;;;;18.46;100.00;94037.66;5091264;28;20288;-62
2022/06/11 05:57:51;;;;;;;6.43;4.72;;;;;;;18.43;100.00;94034.47;5091268;28;20200;-62
2022/06/11 06:00:19;;;;;;;14.88;9.57;;;;;;;18.88;100.00;94032.22;5090741;28;20585;-61
2022/06/11 06:02:45;;;;;;;5.05;4.53;;;;;;;19.10;100.00;94038.81;5089548;28;20276;-63
2022/06/11 06:05:15;;;;;;;4.18;3.78;;;;;;;18.99;100.00;94041.94;5072017;28;20181;-63
2022/06/11 06:07:41;;;;;;;5.65;4.18;;;;;;;18.92;100.00;94052.25;5090131;28;20346;-64
2022/06/11 06:10:06;;;;;;;3.95;3.58;;;;;;;19.03;100.00;94046.50;5080383;22;20316;-63
2022/06/11 06:12:34;;;;;;;4.32;3.53;;;;;;;19.07;100.00;94050.28;5094420;28;20179;-62
2022/06/11 06:15:10;;;;;;;4.18;3.60;;;;;;;18.87;100.00;94048.66;5094058;28;20231;-65
2022/06/11 06:17:37;;;;;;;3.65;3.35;;;;;;;18.94;100.00;94047.72;5076735;28;20203;-64
2022/06/11 06:20:04;;;;;;;3.50;3.20;;;;;;;18.91;100.00;94052.44;5094906;28;20188;-64
2022/06/11 06:22:30;;;;;;;3.55;3.15;;;;;;;18.87;100.00;94053.81;5094943;28;20228;-64
2022/06/11 06:24:55;;;;;;;4.72;3.35;;;;;;;18.78;100.00;94060.13;5076691;28;20180;-62
2022/06/11 06:27:21;;;;;;;4.07;3.58;;;;;;;18.58;100.00;94048.97;5076552;28;20173;-62
2022/06/11 06:29:47;;;;;;;4.28;3.88;;;;;;;18.55;100.00;94055.31;5094628;28;20697;-64
2022/06/11 06:32:13;;;;;;;4.78;3.67;;;;;;;18.57;100.00;94057.69;5076603;28;20595;-65
2022/06/11 06:34:38;;;;;;;4.40;3.75;;;;;;;18.55;100.00;94054.50;5094455;28;20277;-67
2022/06/11 06:37:04;;;;;;;7.75;4.55;;;;;;;18.34;100.00;94058.75;5094480;28;20172;-64
2022/06/11 06:39:30;;;;;;;5.45;4.45;;;;;;;18.42;100.00;94063.72;5094596;28;20269;-64
2022/06/11 06:41:55;;;;;;;7.40;4.55;;;;;;;18.34;100.00;94063.91;5076175;28;20650;-64
2022/06/11 06:44:21;;;;;;;9.48;7.10;;;;;;;18.30;100.00;94061.91;5094329;28;20196;-64
2022/06/11 06:46:47;;;;;;;6.00;4.30;;;;;;;18.38;100.00;94070.25;5094327;28;20168;-62
2022/06/11 06:49:12;;;;;;;5.47;4.40;;;;;;;18.58;100.00;94067.00;5094323;28;20567;-62
2022/06/11 06:51:38;;;;;;;6.15;4.75;;;;;;;18.62;100.00;94069.00;5076270;28;20275;-63
2022/06/11 06:54:04;;;;;;;5.30;4.80;;;;;;;18.59;100.00;94064.22;5094200;28;20192;-63
2022/06/11 06:56:33;;;;;;;5.50;4.90;;;;;;;18.49;100.00;94071.53;5094584;28;20285;-64
2022/06/11 06:59:02;;;;;;;6.47;5.65;;;;;;;18.65;100.00;94067.81;5094097;28;20587;-65
2022/06/11 07:01:28;;;;;;;6.75;5.35;;;;;;;18.71;100.00;94070.41;5094382;28;20211;-63
2022/06/11 07:03:55;;;;;;;5.78;5.18;;;;;;;18.49;100.00;94060.41;5093790;28;20192;-63
2022/06/11 07:06:21;;;;;;;6.28;4.80;;;;;;;18.54;100.00;94064.03;5094313;28;20237;-62
2022/06/11 07:08:49;;;;;;;5.75;5.20;;;;;;;18.73;100.00;94065.06;5075731;28;20200;-63
2022/06/11 07:11:15;;;;;;;8.10;6.07;;;;;;;18.84;100.00;94061.94;5094262;28;20248;-64
2022/06/11 07:13:41;;;;;;;6.40;5.35;;;;;;;18.58;100.00;94070.38;5093705;28;20188;-63
2022/06/11 07:16:06;;;;;;;8.20;5.93;;;;;;;18.55;100.00;94075.09;5093994;28;20260;-64
2022/06/11 07:18:46;;;;;;;6.07;4.85;;;;;;;18.49;100.00;94070.72;5075460;28;20648;-62
2022/06/11 07:21:18;;;;;;;8.60;5.50;;;;;;;18.34;100.00;94068.28;5094272;28;20187;-63
2022/06/11 07:23:49;;;;;;;5.88;4.97;;;;;;;18.49;100.00;94073.28;5092315;28;20270;-63
2022/06/11 07:26:19;;;;;;;5.90;5.30;;;;;;;18.41;100.00;94075.03;5093457;28;20180;-65
2022/06/11 07:29:09;;;;;;;5.88;4.78;;;;;;;18.63;100.00;94083.47;5093883;28;20199;-66
2022/06/11 07:31:35;;;;;;;5.07;4.50;;;;;;;18.61;100.00;94071.75;5075500;28;20197;-63
2022/06/11 07:34:00;;;;;;;7.15;4.63;;;;;;;18.67;100.00;94078.72;5093309;28;20214;-63
2022/06/11 07:36:26;;;;;;;5.05;4.53;;;;;;;18.90;100.00;94081.78;5093693;28;20721;-63
2022/06/11 07:38:51;;;;;;;5.82;4.22;;;;;;;18.80;100.00;94089.06;5093512;28;20201;-65
2022/06/11 07:41:17;;;;;;;4.72;3.80;;;;;;;18.77;100.00;94094.59;5093997;28;20238;-62
2022/06/11 07:43:43;;;;;;;4.55;4.00;;;;;;;18.76;100.00;94093.81;5093280;28;20219;-62
2022/06/11 07:46:08;;;;;;;6.97;5.22;;;;;;;18.76;100.00;94085.28;5093648;28;20184;-62
2022/06/11 07:48:34;;;;;;;5.65;4.57;;;;;;;18.84;100.00;94093.66;5093290;28;20212;-61
2022/06/11 07:50:59;;;;;;;4.78;4.38;;;;;;;18.83;100.00;94099.78;5093450;28;20581;-62
2022/06/11 07:53:25;;;;;;;6.18;4.93;;;;;;;18.84;100.00;94096.22;5092971;28;20250;-61
2022/06/11 07:55:52;;;;;;;5.38;4.88;;;;;;;19.03;100.00;94092.88;5093148;28;20760;-62
2022/06/11 07:58:20;;;;;;;6.35;4.70;;;;;;;19.14;100.00;94091.53;5074546;28;20203;-62
2022/06/11 08:00:48;;;;;;;4.57;4.18;;;;;;;19.26;100.00;94092.53;5074801;28;20180;-63
2022/06/11 08:03:14;;;;;;;6.03;5.43;;;;;;;19.44;100.00;94079.91;5092854;28;20206;-62
2022/06/11 08:05:41;;;;;;;6.15;4.90;;;;;;;19.51;100.00;94083.28;5092940;28;20207;-62
2022/06/11 08:08:07;;;;;;;6.00;5.40;;;;;;;19.66;100.00;94086.47;5092578;28;20200;-62
2022/06/11 08:10:35;;;;;;;4.97;4.55;;;;;;;19.80;100.00;94090.63;5092777;28;20279;-64
2022/06/11 08:13:01;;;;;;;7.07;6.32;;;;;;;19.83;100.00;94097.16;5074245;28;20268;-62
2022/06/11 08:15:27;;;;;;;5.50;4.90;;;;;;;19.76;100.00;94098.94;5074361;28;20303;-61
2022/06/11 08:17:53;;;;;;;5.65;5.13;;;;;;;19.82;100.00;94083.47;5092561;28;20315;-62
2022/06/11 08:20:23;;;;;;;6.25;3.63;;;;;;;19.62;100.00;94100.75;5092540;28;20187;-60
2022/06/11 08:22:48;;;;;;;7.35;4.80;;;;;;;19.77;100.00;94121.97;5092528;28;20210;-61
2022/06/11 08:25:14;;;;;;;4.85;3.97;;;;;;;19.65;100.00;94105.50;5074486;28;20259;-62
2022/06/11 08:27:40;;;;;;;4.25;3.85;;;;;;;19.55;100.00;94089.66;5092290;28;20179;-62
2022/06/11 08:30:06;;;;;;;4.20;3.65;;;;;;;19.54;100.00;94088.03;5092574;28;20184;-64
2022/06/11 08:32:31;;;;;;;4.45;4.05;;;;;;;19.67;100.00;94084.69;5092457;28;20184;-65
2022/06/11 08:34:57;;;;;;;5.80;5.25;;;;;;;19.83;100.00;94085.06;5091988;28;20207;-64
2022/06/11 08:37:23;;;;;;;8.55;5.75;;;;;;;19.89;100.00;94081.69;5073920;28;20590;-65
2022/06/11 08:39:49;;;;;;;8.38;5.03;;;;;;;19.81;100.00;94084.47;5092328;28;20190;-64
2022/06/11 08:42:30;;;;;;;4.95;4.45;;;;;;;19.80;100.00;94093.19;5092090;28;20649;-65
2022/06/11 08:44:58;;;;;;;5.32;4.72;;;;;;;19.97;100.00;94080.69;5092182;28;20191;-63
2022/06/11 08:47:27;;;;;;;8.07;5.53;;;;;;;19.92;100.00;94068.38;5092441;28;20176;-65
2022/06/11 08:49:57;;;;;;;5.18;4.68;;;;;;;20.16;100.00;94091.97;5092330;28;20245;-65
2022/06/11 08:52:28;;;;;;;5.20;4.68;;;;;;;20.37;100.00;94089.97;5092046;28;20176;-65
2022/06/11 08:54:54;;;;;;;4.22;3.78;;;;;;;20.03;100.00;94091.00;5092114;28;20299;-65
2022/06/11 08:57:28;;;;;;;5.28;4.78;;;;;;;20.12;100.00;94088.22;5091862;28;20172;-65
2022/06/11 09:00:02;;;;;;;6.30;4.72;;;;;;;20.10;100.00;94073.72;5091995;28;20183;-61
2022/06/11 09:02:49;;;;;;;5.25;4.03;;;;;;;20.19;100.00;94097.56;5091820;28;20552;-60
2022/06/11 09:05:31;;;;;;;3.95;3.65;;;;;;;20.21;100.00;94081.84;5092371;28;20231;-63
2022/06/11 09:08:24;;;;;;;6.05;4.60;;;;;;;20.09;100.00;94072.13;5091985;28;20295;-62
2022/06/11 09:10:50;;;;;;;5.43;4.93;;;;;;;20.29;100.00;94068.72;5092153;28;20649;-63
2022/06/11 09:13:52;;;;;;;4.63;4.22;;;;;;;20.67;100.00;94103.97;5091845;28;20723;-64
2022/06/11 09:16:42;;;;;;;5.22;3.90;;;;;;;20.84;100.00;94084.44;5091941;28;20250;-60
2022/06/11 09:19:18;;;;;;;5.10;4.57;;;;;;;21.16;100.00;94081.88;5091597;28;20595;-60
2022/06/11 09:22:07;;;;;;;4.60;4.20;;;;;;;21.12;100.00;94084.09;5091450;28;20226;-61
2022/06/11 09:24:50;;;;;;;5.05;3.97;;;;;;;21.12;100.00;94086.69;5091637;28;20252;-61
2022/06/11 09:27:50;;;;;;;6.82;5.05;;;;;;;20.55;100.00;94105.59;5073464;28;20546;-62
2022/06/11 09:30:16;;;;;;;4.45;4.05;;;;;;;20.72;100.00;94072.34;5091574;28;20666;-65
2022/06/11 09:33:03;;;;;;;4.65;4.20;;;;;;;20.49;100.00;94090.13;5091556;28;20584;-61
2022/06/11 09:36:01;;;;;;;4.40;4.00;;;;;;;20.32;100.00;94107.84;5073428;28;20247;-61
2022/06/11 09:38:54;;;;;;;3.72;3.42;;;;;;;20.56;100.00;94072.81;5073359;28;20283;-62
2022/06/11 09:41:41;;;;;;;5.78;4.07;;;;;;;20.54;100.00;94085.16;5092117;28;20225;-61
2022/06/11 09:44:40;;;;;;;3.92;3.63;;;;;;;20.67;100.00;94118.66;5091408;28;20192;-61
2022/06/11 09:47:32;;;;;;;6.68;4.60;;;;;;;20.66;100.00;94089.47;5094630;28;20187;-63
2022/06/11 09:50:16;;;;;;;4.25;3.85;;;;;;;20.56;100.00;94111.56;5084492;28;20226;-65
2022/06/11 09:53:02;;;;;;;3.90;3.50;;;;;;;20.65;100.00;94093.03;5077157;28;20617;-64
2022/06/11 09:55:41;;;;;;;4.50;4.10;;;;;;;20.53;100.00;94109.38;5095175;28;20261;-63
2022/06/11 09:58:53;;;;;;;5.30;4.15;;;;;;;20.38;100.00;94085.59;5095167;28;20218;-64
2022/06/11 10:01:28;;;;;;;4.82;4.43;;;;;;;20.44;100.00;94089.94;5079918;28;20211;-61
2022/06/11 10:04:11;;;;;;;5.15;4.65;;;;;;;20.76;100.00;94110.50;5095108;28;20257;-61
2022/06/11 10:06:43;;;;;;;4.47;4.07;;;;;;;20.56;100.00;94083.16;5095521;28;20184;-62
2022/06/11 10:09:32;;;;;;;4.70;4.30;;;;;;;20.63;100.00;94071.78;5094866;28;20221;-61
2022/06/11 10:12:20;;;;;;;5.63;4.80;;;;;;;20.71;100.00;94083.66;5095247;28;20177;-60
2022/06/11 10:14:55;;;;;;;5.55;4.85;;;;;;;20.87;100.00;94078.03;5076373;28;20312;-60
2022/06/11 10:17:47;;;;;;;6.45;4.97;;;;;;;20.78;100.00;94077.50;5094722;28;20634;-60
2022/06/11 10:20:42;;;;;;;7.35;5.18;;;;;;;20.61;100.00;94065.22;5094927;28;20181;-64
2022/06/11 10:23:19;;;;;;;5.68;5.05;;;;;;;20.46;100.00;94077.63;5094762;28;20192;-64
2022/06/11 10:26:13;;;;;;;6.75;6.05;;;;;;;20.43;100.00;94096.09;5076628;28;20180;-62
2022/06/11 10:28:44;;;;;;;5.57;4.72;;;;;;;20.10;100.00;94084.03;5094513;28;20230;-60
2022/06/11 10:31:18;;;;;;;5.63;5.13;;;;;;;20.30;100.00;94085.81;5094968;28;20626;-60
2022/06/11 10:34:05;;;;;;;8.88;5.65;;;;;;;20.39;100.00;94097.50;5094307;28;20590;-59
2022/06/11 10:36:31;;;;;;;6.18;5.60;;;;;;;20.12;100.00;94111.44;5094708;28;20241;-62
2022/06/11 10:39:01;;;;;;;6.03;5.43;;;;;;;19.94;100.00;94119.78;5094280;28;20200;-61
2022/06/11 10:41:48;;;;;;;6.18;4.80;;;;;;;19.50;100.00;94128.09;5076436;28;20249;-64
2022/06/11 10:44:38;;;;;;;7.65;4.30;;;;;;;18.99;100.00;94121.81;5094250;28;20231;-63
2022/06/11 10:47:16;;;;;;;4.22;3.25;;;;;;;18.64;100.00;94126.25;5094383;28;20184;-63
2022/06/11 10:49:44;;;;;;;7.38;3.30;;;;;;;18.52;100.00;94112.34;5094216;28;20192;-62
2022/06/11 10:52:25;;;;;;;4.53;2.50;;;;;;;18.62;100.00;94119.72;5094297;28;20665;-65
2022/06/11 10:54:51;;;;;;;3.65;2.60;;;;;;;18.71;100.00;94118.53;5101476;22;20227;-61
2022/06/11 10:57:25;;;;;;;3.00;2.67;;;;;;;18.64;100.00;94126.25;5093819;28;20604;-63
2022/06/11 11:00:18;;;;;;;5.18;2.75;;;;;;;18.56;100.00;94123.03;5074073;28;20230;-63
2022/06/11 11:02:50;;;;;;;3.53;3.05;;;;;;;18.51;100.00;94117.66;5065808;28;20282;-62
2022/06/11 11:05:18;;;;;;;3.47;3.10;;;;;;;18.59;100.00;94112.34;5073859;28;20172;-61
2022/06/11 11:07:57;;;;;;;2.70;2.50;;;;;;;18.56;100.00;94117.91;5073822;28;20255;-65
2022/06/11 11:10:22;;;;;;;3.92;3.13;;;;;;;18.60;100.00;94113.94;5073608;28;20183;-66
2022/06/11 11:12:51;;;;;;;4.95;3.85;;;;;;;18.29;100.00;94115.16;5073574;28;20287;-66
2022/06/11 11:15:19;;;;;;;4.53;3.38;;;;;;;18.18;100.00;94118.25;5073424;28;20757;-61
2022/06/11 11:17:52;;;;;;;4.45;4.05;;;;;;;18.12;100.00;94123.38;5071919;28;20300;-62
2022/06/11 11:20:37;;;;;;;4.75;3.92;;;;;;;18.17;100.00;94129.53;5073686;28;20184;-62
2022/06/11 11:23:03;;;;;;;4.20;3.80;;;;;;;18.27;100.00;94121.47;5073412;28;20200;-62
2022/06/11 11:25:37;;;;;;;4.47;4.07;;;;;;;18.31;100.00;94120.91;5073252;28;20177;-66
2022/06/11 11:28:05;;;;;;;9.38;5.47;;;;;;;18.08;100.00;94117.78;5073541;28;20208;-61
2022/06/11 11:30:39;;;;;;;6.45;5.53;;;;;;;17.90;100.00;94117.47;5073441;28;20177;-64
2022/06/11 11:33:26;;;;;;;5.93;5.30;;;;;;;17.85;100.00;94122.38;5072935;28;20219;-63
2022/06/11 11:36:10;;;;;;;5.68;4.82;;;;;;;17.92;100.00;94112.94;5072929;28;20265;-62
2022/06/11 11:38:35;;;;;;;7.55;5.45;;;;;;;18.24;100.00;94125.22;5071843;28;20291;-62
2022/06/11 11:41:03;;;;;;;5.72;4.68;;;;;;;18.11;100.00;94120.00;5073010;28;20319;-63
2022/06/11 11:43:41;;;;;;;4.75;4.30;;;;;;;18.12;100.00;94119.00;5073430;28;20330;-63
2022/06/11 11:46:31;;;;;;;4.70;4.25;;;;;;;18.23;100.00;94117.69;5072987;28;20169;-63